Wetterdaten: Sonntag, 01.07.2018
Datum Zeit Temp. A. Temp. A. min Temp. A. max Feuchte A. Bod.Feucht 4 Luftdruck Regen Wind Richtung Richtung Sonnenschein ET Solar Taupunkt Windchill Windben Empfang
01.07.2018 00:00 20,0 C 20,0 C 20,3 C 43 % 0 cb 1011,8 hPa 0,0 l/m 8,0 km/h (2 Bft) N-NO 22 0 min 0,102 mm 0 W/m 7,0 C 20,0 C 16,1 km/h (3 Bft) 100,00 %
01.07.2018 00:10 19,8 C 19,8 C 19,9 C 43 % 0 cb 1011,9 hPa 0,0 l/m 8,0 km/h (2 Bft) N-NO 22 0 min 0,000 mm 0 W/m 6,9 C 19,8 C 16,1 km/h (3 Bft) 80,70 %
01.07.2018 00:20 19,5 C 19,5 C 19,8 C 43 % 0 cb 1011,9 hPa 0,0 l/m 8,0 km/h (2 Bft) N-NO 22 0 min 0,000 mm 0 W/m 6,6 C 19,5 C 17,7 km/h (3 Bft) 100,00 %
01.07.2018 00:30 19,2 C 19,2 C 19,5 C 42 % 0 cb 1012,0 hPa 0,0 l/m 8,0 km/h (2 Bft) N-NO 22 0 min 0,000 mm 0 W/m 6,0 C 19,2 C 19,3 km/h (3 Bft) 99,56 %
01.07.2018 00:40 18,9 C 18,9 C 19,2 C 43 % 0 cb 1011,9 hPa 0,0 l/m 8,0 km/h (2 Bft) N-NO 22 0 min 0,000 mm 0 W/m 6,0 C 18,9 C 19,3 km/h (3 Bft) 100,00 %
01.07.2018 00:50 18,7 C 18,7 C 18,9 C 43 % 0 cb 1011,9 hPa 0,0 l/m 8,0 km/h (2 Bft) N-NO 22 0 min 0,000 mm 0 W/m 5,9 C 18,7 C 17,7 km/h (3 Bft) 100,00 %
01.07.2018 01:00 18,6 C 18,6 C 18,7 C 43 % 0 cb 1011,9 hPa 0,0 l/m 9,7 km/h (2 Bft) N-NO 22 0 min 0,102 mm 0 W/m 5,8 C 18,6 C 17,7 km/h (3 Bft) 100,00 %
01.07.2018 01:10 18,4 C 18,4 C 18,6 C 43 % 0 cb 1012,0 hPa 0,0 l/m 8,0 km/h (2 Bft) N-NO 22 0 min 0,000 mm 0 W/m 5,6 C 18,4 C 17,7 km/h (3 Bft) 100,00 %
01.07.2018 01:20 18,2 C 18,2 C 18,3 C 43 % 0 cb 1012,1 hPa 0,0 l/m 8,0 km/h (2 Bft) N-NO 22 0 min 0,000 mm 0 W/m 5,4 C 18,2 C 17,7 km/h (3 Bft) 100,00 %
01.07.2018 01:30 18,1 C 18,1 C 18,2 C 43 % 0 cb 1012,2 hPa 0,0 l/m 6,4 km/h (2 Bft) N 360 0 min 0,000 mm 0 W/m 5,3 C 18,1 C 16,1 km/h (3 Bft) 100,00 %
01.07.2018 01:40 17,8 C 17,8 C 18,1 C 44 % 0 cb 1012,1 hPa 0,0 l/m 6,4 km/h (2 Bft) N-NO 22 0 min 0,000 mm 0 W/m 5,4 C 17,8 C 16,1 km/h (3 Bft) 99,56 %
01.07.2018 01:50 17,7 C 17,7 C 17,8 C 44 % 0 cb 1012,1 hPa 0,0 l/m 8,0 km/h (2 Bft) N-NO 22 0 min 0,000 mm 0 W/m 5,3 C 17,7 C 17,7 km/h (3 Bft) 100,00 %
01.07.2018 02:00 17,4 C 17,4 C 17,7 C 45 % 0 cb 1012,1 hPa 0,0 l/m 8,0 km/h (2 Bft) N-NO 22 0 min 0,102 mm 0 W/m 5,3 C 17,4 C 22,5 km/h (4 Bft) 100,00 %
01.07.2018 02:10 17,2 C 17,2 C 17,5 C 46 % 0 cb 1012,2 hPa 0,0 l/m 8,0 km/h (2 Bft) N-NO 22 0 min 0,000 mm 0 W/m 5,5 C 17,2 C 19,3 km/h (3 Bft) 100,00 %
01.07.2018 02:20 17,0 C 17,0 C 17,2 C 46 % 0 cb 1012,4 hPa 0,0 l/m 9,7 km/h (2 Bft) N-NO 22 0 min 0,000 mm 0 W/m 5,3 C 17,0 C 17,7 km/h (3 Bft) 100,00 %
01.07.2018 02:30 16,8 C 16,8 C 17,0 C 46 % 0 cb 1012,4 hPa 0,0 l/m 8,0 km/h (2 Bft) N-NO 22 0 min 0,000 mm 0 W/m 5,1 C 16,8 C 19,3 km/h (3 Bft) 100,00 %
01.07.2018 02:40 16,6 C 16,6 C 16,8 C 47 % 0 cb 1012,5 hPa 0,0 l/m 9,7 km/h (2 Bft) N-NO 22 0 min 0,000 mm 0 W/m 5,2 C 16,6 C 17,7 km/h (3 Bft) 100,00 %
01.07.2018 02:50 16,4 C 16,4 C 16,6 C 48 % 0 cb 1012,5 hPa 0,0 l/m 8,0 km/h (2 Bft) N-NO 22 0 min 0,000 mm 0 W/m 5,4 C 16,4 C 16,1 km/h (3 Bft) 100,00 %
01.07.2018 03:00 16,2 C 16,2 C 16,4 C 48 % 0 cb 1012,5 hPa 0,0 l/m 8,0 km/h (2 Bft) N-NO 22 0 min 0,076 mm 0 W/m 5,2 C 16,2 C 17,7 km/h (3 Bft) 100,00 %
01.07.2018 03:10 16,1 C 16,1 C 16,2 C 48 % 0 cb 1012,5 hPa 0,0 l/m 8,0 km/h (2 Bft) N-NO 22 0 min 0,000 mm 0 W/m 5,1 C 16,1 C 19,3 km/h (3 Bft) 100,00 %
01.07.2018 03:20 15,8 C 15,8 C 16,1 C 49 % 0 cb 1012,5 hPa 0,0 l/m 8,0 km/h (2 Bft) N-NO 22 0 min 0,000 mm 0 W/m 5,1 C 15,8 C 19,3 km/h (3 Bft) 100,00 %
01.07.2018 03:30 15,7 C 15,7 C 15,8 C 49 % 0 cb 1012,5 hPa 0,0 l/m 9,7 km/h (2 Bft) N-NO 22 0 min 0,000 mm 0 W/m 5,0 C 15,7 C 19,3 km/h (3 Bft) 100,00 %
01.07.2018 03:40 15,6 C 15,6 C 15,7 C 49 % 0 cb 1012,5 hPa 0,0 l/m 11,3 km/h (2 Bft) N-NO 22 0 min 0,000 mm 0 W/m 4,9 C 15,6 C 17,7 km/h (3 Bft) 100,00 %
01.07.2018 03:50 15,5 C 15,5 C 15,6 C 49 % 0 cb 1012,3 hPa 0,0 l/m 11,3 km/h (2 Bft) N-NO 22 0 min 0,000 mm 0 W/m 4,8 C 15,5 C 22,5 km/h (4 Bft) 100,00 %
01.07.2018 04:00 15,3 C 15,3 C 15,5 C 50 % 0 cb 1012,4 hPa 0,0 l/m 9,7 km/h (2 Bft) N-NO 22 0 min 0,076 mm 0 W/m 4,9 C 15,3 C 19,3 km/h (3 Bft) 100,00 %
01.07.2018 04:10 15,1 C 15,1 C 15,3 C 50 % 0 cb 1012,4 hPa 0,0 l/m 9,7 km/h (2 Bft) N-NO 22 0 min 0,000 mm 0 W/m 4,8 C 15,1 C 22,5 km/h (4 Bft) 100,00 %
01.07.2018 04:20 15,0 C 15,0 C 15,1 C 51 % 0 cb 1012,4 hPa 0,0 l/m 9,7 km/h (2 Bft) N-NO 22 0 min 0,000 mm 0 W/m 4,9 C 15,0 C 22,5 km/h (4 Bft) 100,00 %
01.07.2018 04:30 14,8 C 14,8 C 15,0 C 52 % 0 cb 1012,4 hPa 0,0 l/m 9,7 km/h (2 Bft) N-NO 22 0 min 0,000 mm 0 W/m 5,0 C 14,8 C 19,3 km/h (3 Bft) 100,00 %
01.07.2018 04:40 14,7 C 14,7 C 14,8 C 52 % 0 cb 1012,3 hPa 0,0 l/m 9,7 km/h (2 Bft) N-NO 22 0 min 0,000 mm 0 W/m 5,0 C 14,7 C 17,7 km/h (3 Bft) 100,00 %
01.07.2018 04:50 14,6 C 14,5 C 14,7 C 52 % 0 cb 1012,3 hPa 0,0 l/m 9,7 km/h (2 Bft) N 360 0 min 0,000 mm 0 W/m 4,9 C 14,6 C 20,9 km/h (4 Bft) 100,00 %
01.07.2018 05:00 14,4 C 14,4 C 14,5 C 53 % 0 cb 1012,3 hPa 0,0 l/m 9,7 km/h (2 Bft) N-NO 22 0 min 0,076 mm 0 W/m 4,9 C 14,4 C 20,9 km/h (4 Bft) 100,00 %
01.07.2018 05:10 14,3 C 14,3 C 14,4 C 53 % 0 cb 1012,3 hPa 0,0 l/m 9,7 km/h (2 Bft) N-NO 22 0 min 0,000 mm 0 W/m 4,9 C 14,3 C 17,7 km/h (3 Bft) 100,00 %
01.07.2018 05:20 14,2 C 14,2 C 14,3 C 54 % 0 cb 1012,4 hPa 0,0 l/m 9,7 km/h (2 Bft) N-NO 22 0 min 0,000 mm 0 W/m 5,0 C 14,2 C 24,1 km/h (4 Bft) 100,00 %
01.07.2018 05:30 14,1 C 14,1 C 14,2 C 55 % 0 cb 1012,4 hPa 0,0 l/m 9,7 km/h (2 Bft) N-NO 22 0 min 0,000 mm 5 W/m 5,2 C 14,1 C 19,3 km/h (3 Bft) 100,00 %
01.07.2018 05:40 13,9 C 13,9 C 14,1 C 55 % 0 cb 1012,6 hPa 0,0 l/m 9,7 km/h (2 Bft) N-NO 22 0 min 0,000 mm 7 W/m 5,0 C 13,9 C 20,9 km/h (4 Bft) 100,00 %
01.07.2018 05:50 13,8 C 13,8 C 13,9 C 56 % 0 cb 1012,6 hPa 0,0 l/m 9,7 km/h (2 Bft) N-NO 22 0 min 0,000 mm 11 W/m 5,2 C 13,8 C 17,7 km/h (3 Bft) 100,00 %
01.07.2018 06:00 13,7 C 13,7 C 13,8 C 56 % 0 cb 1012,6 hPa 0,0 l/m 9,7 km/h (2 Bft) N-NO 22 0 min 0,051 mm 12 W/m 5,1 C 13,7 C 22,5 km/h (4 Bft) 100,00 %
01.07.2018 06:10 13,6 C 13,6 C 13,7 C 58 % 0 cb 1012,5 hPa 0,0 l/m 9,7 km/h (2 Bft) N-NO 22 0 min 0,000 mm 14 W/m 5,5 C 13,6 C 22,5 km/h (4 Bft) 100,00 %
01.07.2018 06:20 13,5 C 13,5 C 13,6 C 58 % 0 cb 1012,4 hPa 0,0 l/m 9,7 km/h (2 Bft) N-NO 22 0 min 0,000 mm 18 W/m 5,4 C 13,5 C 20,9 km/h (4 Bft) 100,00 %
01.07.2018 06:30 13,6 C 13,4 C 13,6 C 58 % 0 cb 1012,4 hPa 0,0 l/m 9,7 km/h (2 Bft) N-NO 22 0 min 0,000 mm 19 W/m 5,5 C 13,6 C 22,5 km/h (4 Bft) 100,00 %
01.07.2018 06:40 13,7 C 13,6 C 13,7 C 58 % 0 cb 1012,6 hPa 0,0 l/m 9,7 km/h (2 Bft) N-NO 22 0 min 0,000 mm 83 W/m 5,6 C 13,7 C 19,3 km/h (3 Bft) 98,25 %
01.07.2018 06:50 13,8 C 13,7 C 13,8 C 58 % 0 cb 1012,5 hPa 0,0 l/m 11,3 km/h (2 Bft) N-NO 22 0 min 0,000 mm 72 W/m 5,7 C 13,8 C 19,3 km/h (3 Bft) 100,00 %
01.07.2018 07:00 14,1 C 13,8 C 14,1 C 58 % 0 cb 1012,6 hPa 0,0 l/m 9,7 km/h (2 Bft) N-NO 22 0 min 0,076 mm 142 W/m 6,0 C 14,1 C 19,3 km/h (3 Bft) 100,00 %
01.07.2018 07:10 14,4 C 14,1 C 14,5 C 57 % 0 cb 1012,6 hPa 0,0 l/m 9,7 km/h (2 Bft) N-NO 22 10 min 0,000 mm 169 W/m 6,0 C 14,4 C 19,3 km/h (3 Bft) 100,00 %
01.07.2018 07:20 14,7 C 14,5 C 14,7 C 57 % 0 cb 1012,8 hPa 0,0 l/m 8,0 km/h (2 Bft) N 360 10 min 0,000 mm 200 W/m 6,3 C 14,7 C 20,9 km/h (4 Bft) 100,00 %
01.07.2018 07:30 14,9 C 14,7 C 14,9 C 57 % 0 cb 1012,7 hPa 0,0 l/m 8,0 km/h (2 Bft) N-NO 22 10 min 0,000 mm 230 W/m 6,5 C 14,9 C 22,5 km/h (4 Bft) 100,00 %
01.07.2018 07:40 15,2 C 14,9 C 15,2 C 57 % 0 cb 1012,7 hPa 0,0 l/m 9,7 km/h (2 Bft) N 360 10 min 0,000 mm 258 W/m 6,7 C 15,2 C 19,3 km/h (3 Bft) 100,00 %
01.07.2018 07:50 15,6 C 15,2 C 15,6 C 56 % 0 cb 1012,7 hPa 0,0 l/m 8,0 km/h (2 Bft) N-NO 22 10 min 0,000 mm 285 W/m 6,9 C 15,6 C 19,3 km/h (3 Bft) 100,00 %
01.07.2018 08:00 15,9 C 15,6 C 15,9 C 56 % 0 cb 1012,8 hPa 0,0 l/m 6,4 km/h (2 Bft) N 360 10 min 0,178 mm 311 W/m 7,1 C 15,9 C 16,1 km/h (3 Bft) 100,00 %
01.07.2018 08:10 16,4 C 15,9 C 16,4 C 54 % 0 cb 1012,9 hPa 0,0 l/m 8,0 km/h (2 Bft) N-NO 22 10 min 0,000 mm 339 W/m 7,1 C 16,4 C 17,7 km/h (3 Bft) 100,00 %
01.07.2018 08:20 16,8 C 16,4 C 16,8 C 54 % 0 cb 1012,9 hPa 0,0 l/m 6,4 km/h (2 Bft) N-NO 22 10 min 0,000 mm 369 W/m 7,4 C 16,8 C 16,1 km/h (3 Bft) 98,68 %
01.07.2018 08:30 17,2 C 16,7 C 17,2 C 53 % 0 cb 1012,9 hPa 0,0 l/m 6,4 km/h (2 Bft) N-NO 22 10 min 0,000 mm 397 W/m 7,5 C 17,2 C 17,7 km/h (3 Bft) 100,00 %
01.07.2018 08:40 17,6 C 17,2 C 17,6 C 52 % 0 cb 1013,0 hPa 0,0 l/m 6,4 km/h (2 Bft) NO 45 10 min 0,000 mm 424 W/m 7,6 C 17,6 C 17,7 km/h (3 Bft) 100,00 %
01.07.2018 08:50 18,1 C 17,6 C 18,1 C 50 % 0 cb 1013,0 hPa 0,0 l/m 8,0 km/h (2 Bft) NO 45 10 min 0,000 mm 450 W/m 7,5 C 18,1 C 24,1 km/h (4 Bft) 100,00 %
01.07.2018 09:00 18,4 C 18,1 C 18,4 C 49 % 0 cb 1013,0 hPa 0,0 l/m 8,0 km/h (2 Bft) O 90 10 min 0,254 mm 476 W/m 7,5 C 18,4 C 20,9 km/h (4 Bft) 100,00 %
01.07.2018 09:10 18,7 C 18,4 C 18,7 C 49 % 0 cb 1013,1 hPa 0,0 l/m 8,0 km/h (2 Bft) O-NO 67 10 min 0,000 mm 501 W/m 7,8 C 18,7 C 24,1 km/h (4 Bft) 100,00 %
01.07.2018 09:20 19,0 C 18,7 C 19,0 C 49 % 0 cb 1013,2 hPa 0,0 l/m 6,4 km/h (2 Bft) O-NO 67 10 min 0,000 mm 531 W/m 8,0 C 19,0 C 17,7 km/h (3 Bft) 100,00 %
01.07.2018 09:30 19,4 C 19,0 C 19,4 C 47 % 0 cb 1013,2 hPa 0,0 l/m 6,4 km/h (2 Bft) O-NO 67 10 min 0,000 mm 555 W/m 7,8 C 19,4 C 17,7 km/h (3 Bft) 100,00 %
01.07.2018 09:40 19,7 C 19,5 C 19,7 C 47 % 0 cb 1013,2 hPa 0,0 l/m 8,0 km/h (2 Bft) O 90 10 min 0,000 mm 578 W/m 8,1 C 19,7 C 16,1 km/h (3 Bft) 100,00 %
01.07.2018 09:50 19,8 C 19,7 C 19,8 C 47 % 0 cb 1013,2 hPa 0,0 l/m 8,0 km/h (2 Bft) O-NO 67 10 min 0,000 mm 601 W/m 8,2 C 19,8 C 19,3 km/h (3 Bft) 100,00 %
01.07.2018 10:00 20,3 C 19,8 C 20,3 C 48 % 0 cb 1013,2 hPa 0,0 l/m 6,4 km/h (2 Bft) O-NO 67 10 min 0,381 mm 628 W/m 8,9 C 20,3 C 17,7 km/h (3 Bft) 100,00 %
01.07.2018 10:10 20,8 C 20,3 C 20,8 C 46 % 0 cb 1013,1 hPa 0,0 l/m 6,4 km/h (2 Bft) O 90 10 min 0,000 mm 650 W/m 8,8 C 20,8 C 17,7 km/h (3 Bft) 100,00 %
01.07.2018 10:20 20,8 C 20,8 C 20,8 C 49 % 0 cb 1013,1 hPa 0,0 l/m 6,4 km/h (2 Bft) O-NO 67 10 min 0,000 mm 671 W/m 9,7 C 20,8 C 20,9 km/h (4 Bft) 100,00 %
01.07.2018 10:30 21,1 C 20,8 C 21,1 C 47 % 0 cb 1013,0 hPa 0,0 l/m 6,4 km/h (2 Bft) O 90 10 min 0,000 mm 694 W/m 9,3 C 21,1 C 19,3 km/h (3 Bft) 100,00 %
01.07.2018 10:40 21,3 C 21,1 C 21,3 C 47 % 0 cb 1013,2 hPa 0,0 l/m 6,4 km/h (2 Bft) O 90 10 min 0,000 mm 714 W/m 9,5 C 21,3 C 16,1 km/h (3 Bft) 100,00 %
01.07.2018 10:50 21,8 C 21,3 C 21,8 C 45 % 0 cb 1013,3 hPa 0,0 l/m 4,8 km/h (1 Bft) O-NO 67 10 min 0,000 mm 733 W/m 9,3 C 21,8 C 14,5 km/h (3 Bft) 100,00 %
01.07.2018 11:00 21,8 C 21,8 C 21,8 C 44 % 0 cb 1013,2 hPa 0,0 l/m 8,0 km/h (2 Bft) O-NO 67 10 min 0,457 mm 751 W/m 9,0 C 21,8 C 17,7 km/h (3 Bft) 100,00 %
01.07.2018 11:10 22,0 C 21,7 C 22,0 C 45 % 0 cb 1013,2 hPa 0,0 l/m 6,4 km/h (2 Bft) O-NO 67 10 min 0,000 mm 772 W/m 9,5 C 22,0 C 17,7 km/h (3 Bft) 100,00 %
01.07.2018 11:20 22,0 C 22,0 C 22,1 C 44 % 0 cb 1013,1 hPa 0,0 l/m 9,7 km/h (2 Bft) O-NO 67 10 min 0,000 mm 789 W/m 9,2 C 22,0 C 20,9 km/h (4 Bft) 100,00 %
01.07.2018 11:30 22,0 C 21,9 C 22,0 C 45 % 0 cb 1013,1 hPa 0,0 l/m 9,7 km/h (2 Bft) O-NO 67 10 min 0,000 mm 800 W/m 9,5 C 22,0 C 22,5 km/h (4 Bft) 100,00 %
01.07.2018 11:40 22,3 C 21,9 C 22,3 C 43 % 0 cb 1013,0 hPa 0,0 l/m 9,7 km/h (2 Bft) O 90 10 min 0,000 mm 817 W/m 9,1 C 22,3 C 20,9 km/h (4 Bft) 99,56 %
01.07.2018 11:50 22,5 C 22,3 C 22,5 C 44 % 0 cb 1013,2 hPa 0,0 l/m 8,0 km/h (2 Bft) O 90 10 min 0,000 mm 831 W/m 9,6 C 22,5 C 20,9 km/h (4 Bft) 100,00 %
01.07.2018 12:00 22,8 C 22,5 C 22,8 C 43 % 0 cb 1013,1 hPa 0,0 l/m 8,0 km/h (2 Bft) NO 45 10 min 0,559 mm 844 W/m 9,6 C 22,8 C 19,3 km/h (3 Bft) 100,00 %
01.07.2018 12:10 22,8 C 22,8 C 22,8 C 43 % 0 cb 1013,1 hPa 0,0 l/m 9,7 km/h (2 Bft) O-NO 67 10 min 0,000 mm 856 W/m 9,6 C 22,8 C 25,7 km/h (4 Bft) 100,00 %
01.07.2018 12:20 23,1 C 22,8 C 23,1 C 42 % 0 cb 1013,2 hPa 0,0 l/m 9,7 km/h (2 Bft) O 90 10 min 0,000 mm 870 W/m 9,5 C 23,1 C 24,1 km/h (4 Bft) 100,00 %
01.07.2018 12:30 23,2 C 23,0 C 23,2 C 42 % 0 cb 1013,2 hPa 0,0 l/m 8,0 km/h (2 Bft) O-NO 67 10 min 0,000 mm 875 W/m 9,6 C 23,2 C 20,9 km/h (4 Bft) 100,00 %
01.07.2018 12:40 23,4 C 23,2 C 23,4 C 40 % 0 cb 1013,2 hPa 0,0 l/m 8,0 km/h (2 Bft) O 90 10 min 0,000 mm 882 W/m 9,0 C 23,4 C 20,9 km/h (4 Bft) 100,00 %
01.07.2018 12:50 23,7 C 23,4 C 23,7 C 40 % 0 cb 1013,1 hPa 0,0 l/m 8,0 km/h (2 Bft) O 90 10 min 0,000 mm 889 W/m 9,3 C 23,7 C 19,3 km/h (3 Bft) 100,00 %
01.07.2018 13:00 23,8 C 23,7 C 23,8 C 39 % 0 cb 1013,0 hPa 0,0 l/m 8,0 km/h (2 Bft) O-NO 67 10 min 0,610 mm 895 W/m 9,0 C 23,8 C 24,1 km/h (4 Bft) 100,00 %
01.07.2018 13:10 23,7 C 23,7 C 23,8 C 39 % 0 cb 1012,9 hPa 0,0 l/m 9,7 km/h (2 Bft) O-NO 67 10 min 0,000 mm 896 W/m 8,9 C 23,7 C 22,5 km/h (4 Bft) 100,00 %
01.07.2018 13:20 23,9 C 23,7 C 23,9 C 39 % 0 cb 1012,7 hPa 0,0 l/m 8,0 km/h (2 Bft) O-NO 67 10 min 0,000 mm 900 W/m 9,1 C 23,9 C 17,7 km/h (3 Bft) 100,00 %
01.07.2018 13:30 24,1 C 23,9 C 24,1 C 38 % 0 cb 1012,7 hPa 0,0 l/m 11,3 km/h (2 Bft) O-NO 67 10 min 0,000 mm 902 W/m 8,9 C 24,1 C 22,5 km/h (4 Bft) 100,00 %
01.07.2018 13:40 24,2 C 24,1 C 24,2 C 40 % 0 cb 1012,6 hPa 0,0 l/m 9,7 km/h (2 Bft) O-NO 67 10 min 0,000 mm 902 W/m 9,7 C 24,2 C 22,5 km/h (4 Bft) 100,00 %
01.07.2018 13:50 24,4 C 24,2 C 24,4 C 39 % 0 cb 1012,6 hPa 0,0 l/m 8,0 km/h (2 Bft) NO 45 10 min 0,000 mm 900 W/m 9,5 C 24,4 C 20,9 km/h (4 Bft) 100,00 %
01.07.2018 14:00 24,5 C 24,4 C 24,5 C 40 % 0 cb 1012,5 hPa 0,0 l/m 9,7 km/h (2 Bft) O-NO 67 10 min 0,635 mm 904 W/m 10,0 C 24,5 C 22,5 km/h (4 Bft) 100,00 %
01.07.2018 14:10 24,7 C 24,6 C 24,7 C 40 % 0 cb 1012,5 hPa 0,0 l/m 8,0 km/h (2 Bft) O-NO 67 10 min 0,000 mm 896 W/m 10,2 C 24,7 C 19,3 km/h (3 Bft) 100,00 %
01.07.2018 14:20 24,8 C 24,7 C 24,9 C 36 % 0 cb 1012,4 hPa 0,0 l/m 6,4 km/h (2 Bft) NO 45 10 min 0,000 mm 891 W/m 8,7 C 24,8 C 19,3 km/h (3 Bft) 100,00 %
01.07.2018 14:30 24,9 C 24,7 C 24,9 C 39 % 0 cb 1012,5 hPa 0,0 l/m 8,0 km/h (2 Bft) O-NO 67 10 min 0,000 mm 888 W/m 10,0 C 24,9 C 19,3 km/h (3 Bft) 100,00 %
01.07.2018 14:40 25,1 C 24,9 C 25,1 C 36 % 0 cb 1012,4 hPa 0,0 l/m 8,0 km/h (2 Bft) O 90 10 min 0,000 mm 879 W/m 9,0 C 25,1 C 19,3 km/h (3 Bft) 100,00 %
01.07.2018 14:50 25,1 C 25,1 C 25,1 C 35 % 0 cb 1012,4 hPa 0,0 l/m 8,0 km/h (2 Bft) O-NO 67 10 min 0,000 mm 872 W/m 8,6 C 25,1 C 20,9 km/h (4 Bft) 100,00 %
01.07.2018 15:00 25,2 C 25,1 C 25,2 C 35 % 0 cb 1012,3 hPa 0,0 l/m 8,0 km/h (2 Bft) O 90 10 min 0,635 mm 863 W/m 8,6 C 25,2 C 17,7 km/h (3 Bft) 100,00 %
01.07.2018 15:10 25,3 C 25,2 C 25,3 C 36 % 0 cb 1012,3 hPa 0,0 l/m 6,4 km/h (2 Bft) O-NO 67 10 min 0,000 mm 849 W/m 9,1 C 25,3 C 17,7 km/h (3 Bft) 100,00 %
01.07.2018 15:20 25,3 C 25,3 C 25,4 C 34 % 0 cb 1012,2 hPa 0,0 l/m 9,7 km/h (2 Bft) O 90 10 min 0,000 mm 838 W/m 8,3 C 25,3 C 24,1 km/h (4 Bft) 100,00 %
01.07.2018 15:30 25,5 C 25,4 C 25,5 C 36 % 0 cb 1012,0 hPa 0,0 l/m 8,0 km/h (2 Bft) O 90 10 min 0,000 mm 826 W/m 9,3 C 25,5 C 25,7 km/h (4 Bft) 100,00 %
01.07.2018 15:40 25,7 C 25,5 C 25,7 C 37 % 0 cb 1012,0 hPa 0,0 l/m 6,4 km/h (2 Bft) O 90 10 min 0,000 mm 814 W/m 9,9 C 25,7 C 19,3 km/h (3 Bft) 100,00 %
01.07.2018 15:50 25,7 C 25,6 C 25,7 C 35 % 0 cb 1012,0 hPa 0,0 l/m 8,0 km/h (2 Bft) O-NO 67 10 min 0,000 mm 800 W/m 9,1 C 25,7 C 20,9 km/h (4 Bft) 100,00 %
01.07.2018 16:00 25,6 C 25,5 C 25,7 C 36 % 0 cb 1012,0 hPa 0,0 l/m 8,0 km/h (2 Bft) O-NO 67 10 min 0,584 mm 779 W/m 9,4 C 25,6 C 19,3 km/h (3 Bft) 100,00 %
01.07.2018 16:10 25,6 C 25,5 C 25,6 C 34 % 0 cb 1011,9 hPa 0,0 l/m 8,0 km/h (2 Bft) O-NO 67 10 min 0,000 mm 765 W/m 8,6 C 25,6 C 20,9 km/h (4 Bft) 100,00 %
01.07.2018 16:20 25,6 C 25,5 C 25,6 C 35 % 0 cb 1012,0 hPa 0,0 l/m 8,0 km/h (2 Bft) O 90 10 min 0,000 mm 747 W/m 9,0 C 25,6 C 17,7 km/h (3 Bft) 100,00 %
01.07.2018 16:30 25,6 C 25,6 C 25,6 C 35 % 0 cb 1011,9 hPa 0,0 l/m 8,0 km/h (2 Bft) O-NO 67 10 min 0,000 mm 728 W/m 9,0 C 25,6 C 22,5 km/h (4 Bft) 100,00 %
01.07.2018 16:40 25,9 C 25,6 C 25,9 C 33 % 0 cb 1011,8 hPa 0,0 l/m 8,0 km/h (2 Bft) O-NO 67 10 min 0,000 mm 708 W/m 8,4 C 25,9 C 19,3 km/h (3 Bft) 100,00 %
01.07.2018 16:50 25,9 C 25,9 C 26,0 C 34 % 0 cb 1011,7 hPa 0,0 l/m 9,7 km/h (2 Bft) O-NO 67 10 min 0,000 mm 689 W/m 8,8 C 25,9 C 20,9 km/h (4 Bft) 100,00 %
01.07.2018 17:00 25,6 C 25,6 C 25,9 C 33 % 0 cb 1011,6 hPa 0,0 l/m 9,7 km/h (2 Bft) O-NO 67 10 min 0,533 mm 668 W/m 8,1 C 25,6 C 24,1 km/h (4 Bft) 100,00 %
01.07.2018 17:10 25,6 C 25,6 C 25,6 C 32 % 0 cb 1011,6 hPa 0,0 l/m 6,4 km/h (2 Bft) NO 45 10 min 0,000 mm 645 W/m 7,7 C 25,6 C 19,3 km/h (3 Bft) 100,00 %
01.07.2018 17:20 25,6 C 25,6 C 25,7 C 34 % 0 cb 1011,6 hPa 0,0 l/m 6,4 km/h (2 Bft) O 90 10 min 0,000 mm 622 W/m 8,6 C 25,6 C 19,3 km/h (3 Bft) 100,00 %
01.07.2018 17:30 25,6 C 25,6 C 25,7 C 35 % 0 cb 1011,6 hPa 0,0 l/m 8,0 km/h (2 Bft) O-NO 67 10 min 0,000 mm 598 W/m 9,0 C 25,6 C 25,7 km/h (4 Bft) 100,00 %
01.07.2018 17:40 25,7 C 25,6 C 25,7 C 35 % 0 cb 1011,6 hPa 0,0 l/m 6,4 km/h (2 Bft) O 90 10 min 0,000 mm 573 W/m 9,1 C 25,7 C 14,5 km/h (3 Bft) 100,00 %
01.07.2018 17:50 25,7 C 25,7 C 25,8 C 34 % 0 cb 1011,5 hPa 0,0 l/m 8,0 km/h (2 Bft) O-NO 67 10 min 0,000 mm 545 W/m 8,6 C 25,7 C 20,9 km/h (4 Bft) 100,00 %
01.07.2018 18:00 25,7 C 25,6 C 25,7 C 34 % 0 cb 1011,5 hPa 0,0 l/m 8,0 km/h (2 Bft) O-NO 67 10 min 0,432 mm 527 W/m 8,6 C 25,7 C 16,1 km/h (3 Bft) 100,00 %
01.07.2018 18:10 25,8 C 25,7 C 25,8 C 35 % 0 cb 1011,5 hPa 0,0 l/m 6,4 km/h (2 Bft) O-NO 67 10 min 0,000 mm 497 W/m 9,2 C 25,8 C 14,5 km/h (3 Bft) 100,00 %
01.07.2018 18:20 25,7 C 25,7 C 25,8 C 33 % 0 cb 1011,4 hPa 0,0 l/m 8,0 km/h (2 Bft) N-NO 22 10 min 0,000 mm 471 W/m 8,2 C 25,7 C 19,3 km/h (3 Bft) 100,00 %
01.07.2018 18:30 25,3 C 25,3 C 25,7 C 34 % 0 cb 1011,3 hPa 0,0 l/m 6,4 km/h (2 Bft) O 90 10 min 0,000 mm 443 W/m 8,3 C 25,3 C 16,1 km/h (3 Bft) 99,12 %
01.07.2018 18:40 25,3 C 25,3 C 25,3 C 34 % 0 cb 1011,3 hPa 0,0 l/m 4,8 km/h (1 Bft) O-NO 67 10 min 0,000 mm 417 W/m 8,3 C 25,3 C 16,1 km/h (3 Bft) 100,00 %
01.07.2018 18:50 25,3 C 25,3 C 25,3 C 34 % 0 cb 1011,2 hPa 0,0 l/m 6,4 km/h (2 Bft) O 90 10 min 0,000 mm 390 W/m 8,3 C 25,3 C 22,5 km/h (4 Bft) 100,00 %
01.07.2018 19:00 25,2 C 25,2 C 25,3 C 34 % 0 cb 1011,3 hPa 0,0 l/m 8,0 km/h (2 Bft) O-NO 67 10 min 0,356 mm 366 W/m 8,2 C 25,2 C 20,9 km/h (4 Bft) 100,00 %
01.07.2018 19:10 25,1 C 25,1 C 25,2 C 34 % 0 cb 1011,3 hPa 0,0 l/m 6,4 km/h (2 Bft) O-NO 67 10 min 0,000 mm 338 W/m 8,1 C 25,1 C 20,9 km/h (4 Bft) 100,00 %
01.07.2018 19:20 25,1 C 25,0 C 25,1 C 35 % 0 cb 1011,3 hPa 0,0 l/m 6,4 km/h (2 Bft) O-NO 67 10 min 0,000 mm 309 W/m 8,6 C 25,1 C 19,3 km/h (3 Bft) 100,00 %
01.07.2018 19:30 24,9 C 24,9 C 25,1 C 33 % 0 cb 1011,3 hPa 0,0 l/m 6,4 km/h (2 Bft) O-NO 67 10 min 0,000 mm 281 W/m 7,5 C 24,9 C 20,9 km/h (4 Bft) 100,00 %
01.07.2018 19:40 24,7 C 24,7 C 24,9 C 33 % 0 cb 1011,3 hPa 0,0 l/m 6,4 km/h (2 Bft) NO 45 10 min 0,000 mm 255 W/m 7,3 C 24,7 C 14,5 km/h (3 Bft) 100,00 %
01.07.2018 19:50 24,6 C 24,6 C 24,7 C 35 % 0 cb 1011,4 hPa 0,0 l/m 4,8 km/h (1 Bft) O-NO 67 10 min 0,000 mm 229 W/m 8,1 C 24,6 C 16,1 km/h (3 Bft) 100,00 %
01.07.2018 20:00 24,3 C 24,3 C 24,6 C 35 % 0 cb 1011,3 hPa 0,0 l/m 6,4 km/h (2 Bft) O-NO 67 10 min 0,229 mm 200 W/m 7,8 C 24,3 C 16,1 km/h (3 Bft) 99,56 %
01.07.2018 20:10 24,1 C 24,1 C 24,3 C 34 % 0 cb 1011,2 hPa 0,0 l/m 6,4 km/h (2 Bft) O-NO 67 10 min 0,000 mm 172 W/m 7,2 C 24,1 C 14,5 km/h (3 Bft) 100,00 %
01.07.2018 20:20 23,9 C 23,9 C 24,1 C 35 % 0 cb 1011,3 hPa 0,0 l/m 4,8 km/h (1 Bft) NO 45 0 min 0,000 mm 146 W/m 7,5 C 23,9 C 12,9 km/h (3 Bft) 100,00 %
01.07.2018 20:30 23,7 C 23,7 C 23,9 C 34 % 0 cb 1011,3 hPa 0,0 l/m 4,8 km/h (1 Bft) N-NO 22 0 min 0,000 mm 116 W/m 6,9 C 23,7 C 17,7 km/h (3 Bft) 100,00 %
01.07.2018 20:40 23,4 C 23,4 C 23,7 C 36 % 0 cb 1011,3 hPa 0,0 l/m 4,8 km/h (1 Bft) O-NO 67 0 min 0,000 mm 91 W/m 7,5 C 23,4 C 16,1 km/h (3 Bft) 100,00 %
01.07.2018 20:50 23,1 C 23,1 C 23,4 C 36 % 0 cb 1011,4 hPa 0,0 l/m 6,4 km/h (2 Bft) NO 45 0 min 0,000 mm 69 W/m 7,2 C 23,1 C 14,5 km/h (3 Bft) 100,00 %
01.07.2018 21:00 22,6 C 22,6 C 23,1 C 37 % 0 cb 1011,5 hPa 0,0 l/m 4,8 km/h (1 Bft) N-NO 22 0 min 0,127 mm 47 W/m 7,2 C 22,6 C 16,1 km/h (3 Bft) 100,00 %
01.07.2018 21:10 22,0 C 22,0 C 22,6 C 37 % 0 cb 1011,6 hPa 0,0 l/m 4,8 km/h (1 Bft) NO 45 0 min 0,000 mm 14 W/m 6,6 C 22,0 C 14,5 km/h (3 Bft) 100,00 %
01.07.2018 21:20 21,6 C 21,6 C 22,0 C 38 % 0 cb 1011,6 hPa 0,0 l/m 4,8 km/h (1 Bft) NO 45 0 min 0,000 mm 12 W/m 6,7 C 21,6 C 14,5 km/h (3 Bft) 100,00 %
01.07.2018 21:30 21,2 C 21,2 C 21,6 C 39 % 0 cb 1011,6 hPa 0,0 l/m 4,8 km/h (1 Bft) N-NO 22 0 min 0,000 mm 9 W/m 6,7 C 21,2 C 14,5 km/h (3 Bft) 100,00 %
01.07.2018 21:40 20,8 C 20,8 C 21,2 C 40 % 0 cb 1011,6 hPa 0,0 l/m 4,8 km/h (1 Bft) N-NO 22 0 min 0,000 mm 7 W/m 6,7 C 20,8 C 14,5 km/h (3 Bft) 100,00 %
01.07.2018 21:50 20,6 C 20,6 C 20,8 C 40 % 0 cb 1011,7 hPa 0,0 l/m 4,8 km/h (1 Bft) N-NO 22 0 min 0,000 mm 5 W/m 6,5 C 20,6 C 14,5 km/h (3 Bft) 99,12 %
01.07.2018 22:00 20,4 C 20,4 C 20,6 C 41 % 0 cb 1011,7 hPa 0,0 l/m 4,8 km/h (1 Bft) N-NO 22 0 min 0,051 mm 0 W/m 6,7 C 20,4 C 11,3 km/h (2 Bft) 100,00 %
01.07.2018 22:10 20,2 C 20,2 C 20,4 C 41 % 0 cb 1011,8 hPa 0,0 l/m 4,8 km/h (1 Bft) N-NO 22 0 min 0,000 mm 0 W/m 6,5 C 20,2 C 11,3 km/h (2 Bft) 100,00 %
01.07.2018 22:20 19,9 C 19,9 C 20,2 C 42 % 0 cb 1011,8 hPa 0,0 l/m 4,8 km/h (1 Bft) N-NO 22 0 min 0,000 mm 0 W/m 6,6 C 19,9 C 16,1 km/h (3 Bft) 100,00 %
01.07.2018 22:30 19,8 C 19,8 C 19,9 C 42 % 0 cb 1011,9 hPa 0,0 l/m 6,4 km/h (2 Bft) N-NO 22 0 min 0,000 mm 0 W/m 6,5 C 19,8 C 14,5 km/h (3 Bft) 100,00 %
01.07.2018 22:40 19,5 C 19,5 C 19,8 C 43 % 0 cb 1012,0 hPa 0,0 l/m 4,8 km/h (1 Bft) N-NO 22 0 min 0,000 mm 0 W/m 6,6 C 19,5 C 12,9 km/h (3 Bft) 100,00 %
01.07.2018 22:50 19,2 C 19,2 C 19,5 C 43 % 0 cb 1012,0 hPa 0,0 l/m 6,4 km/h (2 Bft) N-NO 22 0 min 0,000 mm 0 W/m 6,3 C 19,2 C 12,9 km/h (3 Bft) 100,00 %
01.07.2018 23:00 19,1 C 19,0 C 19,2 C 43 % 0 cb 1012,0 hPa 0,0 l/m 6,4 km/h (2 Bft) N-NO 22 0 min 0,051 mm 0 W/m 6,2 C 19,1 C 16,1 km/h (3 Bft) 100,00 %
01.07.2018 23:10 18,8 C 18,8 C 19,1 C 44 % 0 cb 1011,9 hPa 0,0 l/m 6,4 km/h (2 Bft) N-NO 22 0 min 0,000 mm 0 W/m 6,3 C 18,8 C 17,7 km/h (3 Bft) 100,00 %
01.07.2018 23:20 18,7 C 18,7 C 18,9 C 44 % 0 cb 1012,0 hPa 0,0 l/m 6,4 km/h (2 Bft) N-NO 22 0 min 0,000 mm 0 W/m 6,2 C 18,7 C 14,5 km/h (3 Bft) 100,00 %
01.07.2018 23:30 18,5 C 18,5 C 18,7 C 45 % 0 cb 1012,0 hPa 0,0 l/m 4,8 km/h (1 Bft) N-NO 22 0 min 0,000 mm 0 W/m 6,3 C 18,5 C 11,3 km/h (2 Bft) 100,00 %
01.07.2018 23:40 18,3 C 18,3 C 18,5 C 45 % 0 cb 1012,1 hPa 0,0 l/m 4,8 km/h (1 Bft) N 360 0 min 0,000 mm 0 W/m 6,2 C 18,3 C 11,3 km/h (2 Bft) 100,00 %
01.07.2018 23:50 18,2 C 18,2 C 18,3 C 45 % 0 cb 1012,2 hPa 0,0 l/m 4,8 km/h (1 Bft) N-NO 22 0 min 0,000 mm 0 W/m 6,1 C 18,2 C 14,5 km/h (3 Bft) 100,00 %
_ Min-Zeit 06:30 06:30 06:20 17:10 00:00 18:50 - 10:50 - - - - - 04:10 06:20 22:00 00:10
Minimum _ 13,4 C 13,4 C 13,6 C 32 % 0 cb 1011,2 hPa - 4,8 km/h (1 Bft) - - - - - 4,8 C 13,5 C 11,3 km/h (2 Bft) 80,70 %
_ Max-Zeit 16:50 16:50 16:50 06:10 00:00 10:50 00:00 03:40 - - 07:10 14:00 14:00 14:10 16:40 12:10 00:00
Maximum _ 26,0 C 25,9 C 26,0 C 58 % 0 cb 1013,3 hPa 0,0 l/m 11,3 km/h
N-NO (2 Bft)
- - 10 min 0,635 mm 904 W/m 10,2 C 25,9 C 25,7 km/h
O-NO (4 Bft)
100,00 %
Durchschnitt _ 20,4 C 20,3 C 20,5 C 43 % 0 cb 1012,3 hPa #0,0 l/m 7,7 km/h (2 Bft) N-NO - #13:10 h #6,733 mm 508 W/m 7,3 C 20,4 C 18,7 km/h (3 Bft) 99,82 %
Wetterstation Gdesweiler